createdAt,value
2019-03-15T00:30:29.928Z,1.60
2019-03-15T00:33:01.587Z,1.49
2019-03-15T00:35:32.101Z,1.39
2019-03-15T00:38:02.912Z,1.34
2019-03-15T00:40:33.514Z,1.43
2019-03-15T00:43:03.990Z,1.37
2019-03-15T00:45:34.388Z,1.48
2019-03-15T00:48:04.843Z,1.62
2019-03-15T00:50:35.141Z,1.61
2019-03-15T00:53:05.508Z,1.49
2019-03-15T00:55:36.266Z,1.54
2019-03-15T00:58:06.706Z,1.60
2019-03-15T01:00:37.108Z,1.53
2019-03-15T01:03:07.465Z,1.49
2019-03-15T01:05:37.868Z,1.40
2019-03-15T01:08:08.347Z,1.46
2019-03-15T01:10:38.664Z,1.31
2019-03-15T01:13:09.053Z,1.38
2019-03-15T01:15:41.625Z,1.47
2019-03-15T01:18:11.961Z,1.45
2019-03-15T01:20:42.487Z,1.35
2019-03-15T01:23:12.895Z,1.32
2019-03-15T01:25:44.141Z,1.27
2019-03-15T01:28:14.529Z,1.21
2019-03-15T01:30:44.974Z,1.16
2019-03-15T01:33:15.384Z,1.14
2019-03-15T01:35:45.881Z,1.18
2019-03-15T01:38:16.339Z,1.13
2019-03-15T01:40:48.820Z,1.12
2019-03-15T01:43:21.122Z,1.12
2019-03-15T01:45:52.855Z,0.97
2019-03-15T01:48:23.221Z,0.80
2019-03-15T01:50:53.799Z,0.91
2019-03-15T01:53:24.427Z,0.79
2019-03-15T01:55:56.953Z,0.79
2019-03-15T01:58:30.923Z,0.71
2019-03-15T02:01:01.338Z,0.86
2019-03-15T02:03:36.025Z,0.83
2019-03-15T02:06:06.337Z,0.78
2019-03-15T02:08:39.416Z,0.71
2019-03-15T02:11:09.874Z,0.84
2019-03-15T02:13:40.801Z,0.83
2019-03-15T02:16:11.212Z,0.71
2019-03-15T02:18:41.702Z,0.75
2019-03-15T02:21:12.104Z,0.75
2019-03-15T02:23:42.453Z,0.62
2019-03-15T02:26:12.851Z,0.62
2019-03-15T02:28:43.252Z,0.76
2019-03-15T02:31:13.836Z,0.74
2019-03-15T02:33:44.198Z,0.57
2019-03-15T02:36:14.562Z,0.51
2019-03-15T02:38:45.238Z,0.45
2019-03-15T02:41:15.673Z,0.45
2019-03-15T02:43:46.460Z,0.56
2019-03-15T02:46:16.889Z,0.56
2019-03-15T02:48:47.197Z,0.53
2019-03-15T02:51:17.929Z,0.50
2019-03-15T02:53:48.275Z,0.53
2019-03-15T02:56:18.615Z,0.57
2019-03-15T02:58:49.131Z,0.51
2019-03-15T03:01:19.509Z,0.45
2019-03-15T03:03:50.780Z,0.51
2019-03-15T03:06:21.108Z,0.44
2019-03-15T03:08:51.549Z,0.35
2019-03-15T03:11:21.898Z,0.38
2019-03-15T03:13:52.324Z,0.49
2019-03-15T03:16:22.807Z,0.49
2019-03-15T03:18:54.056Z,0.51
2019-03-15T03:21:24.492Z,0.37
2019-03-15T03:23:54.885Z,0.32
2019-03-15T03:26:25.281Z,0.33
2019-03-15T03:28:55.746Z,0.28
2019-03-15T03:31:26.158Z,0.34
2019-03-15T03:33:56.567Z,0.25
2019-03-15T03:36:26.926Z,0.25
2019-03-15T03:38:58.960Z,0.17
2019-03-15T03:41:31.833Z,0.19
2019-03-15T03:44:05.034Z,0.19
2019-03-15T03:46:37.546Z,0.28
2019-03-15T03:49:07.859Z,0.18
2019-03-15T03:51:38.271Z,0.18
2019-03-15T03:54:08.772Z,0.12
2019-03-15T03:56:39.121Z,0.15
2019-03-15T03:59:09.603Z,0.21
2019-03-15T04:01:40.143Z,0.16
2019-03-15T04:04:10.552Z,0.07
2019-03-15T04:06:40.938Z,-0.03
2019-03-15T04:09:14.901Z,-0.03
2019-03-15T04:11:55.475Z,0.03
2019-03-15T04:14:17.967Z,-0.06
2019-03-15T04:16:51.235Z,-0.11
2019-03-15T04:19:22.828Z,-0.04
2019-03-15T04:21:55.571Z,0.03
2019-03-15T04:24:27.688Z,0.02
2019-03-15T04:26:58.209Z,-0.05
2019-03-15T04:29:29.650Z,-0.06
2019-03-15T04:32:00.051Z,-0.09
2019-03-15T04:34:30.435Z,-0.03
2019-03-15T04:37:00.798Z,0.04
2019-03-15T04:39:31.230Z,0.03
2019-03-15T04:42:05.454Z,0.14
2019-03-15T04:44:36.964Z,0.00
2019-03-15T04:47:09.456Z,0.01
2019-03-15T04:49:39.865Z,0.05
2019-03-15T04:52:10.204Z,0.12
2019-03-15T04:54:41.374Z,-0.05
2019-03-15T04:57:11.829Z,-0.68
2019-03-15T04:59:42.207Z,-0.08
2019-03-15T05:02:12.492Z,0.08
2019-03-15T05:05:04.540Z,-0.87
2019-03-15T05:07:36.334Z,0.06
2019-03-15T05:10:06.768Z,0.02
2019-03-15T05:12:37.194Z,-0.05
2019-03-15T05:15:08.003Z,0.17
2019-03-15T05:17:38.402Z,0.08
2019-03-15T05:20:09.116Z,0.26
2019-03-15T05:22:39.523Z,0.26
2019-03-15T05:25:10.027Z,0.22
2019-03-15T05:27:40.350Z,-0.10
2019-03-15T05:30:16.365Z,0.19
2019-03-15T05:33:02.489Z,0.09
2019-03-15T05:35:34.733Z,0.20
2019-03-15T05:38:05.479Z,0.22
2019-03-15T05:40:36.390Z,0.15
2019-03-15T05:43:07.498Z,0.23
2019-03-15T05:45:51.233Z,0.20
2019-03-15T05:48:25.402Z,0.23
2019-03-15T05:50:57.783Z,0.22
2019-03-15T05:53:33.221Z,0.25
2019-03-15T05:56:08.757Z,0.29
2019-03-15T05:58:49.340Z,0.21
2019-03-15T06:01:24.248Z,0.20
2019-03-15T06:04:17.711Z,0.33
2019-03-15T06:07:49.618Z,0.23
2019-03-15T06:09:58.568Z,0.19
2019-03-15T06:12:58.572Z,0.28
2019-03-15T06:15:53.585Z,0.26
2019-03-15T06:18:30.215Z,0.20
2019-03-15T06:21:15.219Z,0.41
2019-03-15T06:23:55.863Z,0.50
2019-03-15T06:26:37.646Z,0.50
2019-03-15T06:29:21.228Z,0.47
2019-03-15T06:31:55.389Z,0.57
2019-03-15T06:34:35.361Z,0.61
2019-03-15T06:37:04.721Z,0.78
2019-03-15T06:39:36.987Z,0.82
2019-03-15T06:42:11.465Z,0.76
2019-03-15T06:44:41.715Z,0.73
2019-03-15T06:47:16.946Z,0.81
2019-03-15T06:49:49.184Z,0.92
2019-03-15T06:52:33.228Z,0.81
2019-03-15T06:55:23.791Z,0.96
2019-03-15T06:58:01.338Z,0.96
2019-03-15T07:01:34.804Z,1.07
2019-03-15T07:03:22.370Z,1.14
2019-03-15T07:05:54.269Z,1.24
2019-03-15T07:19:37.113Z,1.45
2019-03-15T07:22:28.419Z,1.53
2019-03-15T07:25:39.748Z,1.49
2019-03-15T07:28:30.794Z,1.47
2019-03-15T07:37:52.067Z,1.68
2019-03-15T07:40:44.559Z,1.61
2019-03-15T07:44:00.554Z,1.80
2019-03-15T07:53:08.138Z,1.91
2019-03-15T07:59:29.060Z,1.99
2019-03-15T08:02:42.972Z,2.14
2019-03-15T08:05:56.508Z,2.34
2019-03-15T08:11:42.064Z,2.70
2019-03-15T08:17:55.933Z,3.06
2019-03-15T08:26:57.060Z,3.18
2019-03-15T08:29:52.902Z,3.38
2019-03-15T08:32:50.970Z,3.45
2019-03-15T08:45:22.061Z,3.75
2019-03-15T08:48:11.528Z,3.64
2019-03-15T08:54:19.915Z,3.59
2019-03-15T08:57:46.606Z,3.66
2019-03-15T09:04:21.330Z,3.83
2019-03-15T09:31:09.632Z,3.97
2019-03-15T09:37:06.808Z,3.83
2019-03-15T09:43:46.993Z,4.02
2019-03-15T09:46:49.654Z,4.20
2019-03-15T10:09:45.669Z,4.56
2019-03-15T10:12:29.199Z,4.64
2019-03-15T10:20:57.424Z,4.76
2019-03-15T10:24:25.711Z,4.73
2019-03-15T11:05:22.211Z,5.04
2019-03-15T11:10:10.221Z,5.11
2019-03-15T11:57:00.668Z,4.85
2019-03-15T11:59:46.590Z,4.78
2019-03-15T12:02:39.671Z,4.76
2019-03-15T12:08:22.351Z,4.77
2019-03-15T12:14:26.116Z,4.89
2019-03-15T12:17:31.121Z,4.91
2019-03-15T12:20:44.238Z,4.91
2019-03-15T12:23:51.072Z,4.86
2019-03-15T12:32:49.072Z,4.65
2019-03-15T12:35:34.872Z,4.66
2019-03-15T12:38:27.627Z,4.68
2019-03-15T12:53:27.392Z,4.80
2019-03-15T12:56:32.043Z,4.63
2019-03-15T12:59:13.914Z,4.58
2019-03-15T13:02:03.905Z,4.46
2019-03-15T13:11:36.391Z,4.29
2019-03-15T13:17:11.690Z,4.33
2019-03-15T13:22:59.412Z,4.30
2019-03-15T13:23:35.141Z,4.24
2019-03-15T13:29:27.987Z,4.28
2019-03-15T13:34:57.436Z,4.26
2019-03-15T13:40:43.468Z,4.12
2019-03-15T13:43:35.802Z,4.09
2019-03-15T13:46:21.388Z,3.99
2019-03-15T13:52:24.856Z,3.86
2019-03-15T13:55:17.076Z,3.99
2019-03-15T14:02:25.923Z,3.87
2019-03-15T14:13:12.136Z,3.87
2019-03-15T14:16:06.078Z,3.98
2019-03-15T14:33:48.996Z,3.79
2019-03-15T14:42:52.417Z,3.93
2019-03-15T14:45:43.203Z,3.88
2019-03-15T14:54:45.878Z,3.85
2019-03-15T14:58:00.357Z,3.93
2019-03-15T15:56:11.752Z,3.16
2019-03-15T15:59:11.375Z,3.09
2019-03-15T16:05:26.009Z,3.10
2019-03-15T16:07:58.016Z,3.03
2019-03-15T16:11:14.796Z,3.00
2019-03-15T16:14:13.299Z,3.00
2019-03-15T16:16:53.897Z,2.99
2019-03-15T16:19:54.289Z,2.96
2019-03-15T16:22:36.054Z,2.89
2019-03-15T16:25:38.123Z,2.92
2019-03-15T16:30:44.555Z,3.00
2019-03-15T16:40:49.450Z,2.87
2019-03-15T16:49:43.573Z,2.86
2019-03-15T16:52:18.712Z,2.71
2019-03-15T16:55:42.093Z,2.69
2019-03-15T17:08:34.439Z,2.66
2019-03-15T17:11:25.296Z,2.57
2019-03-15T17:17:52.522Z,2.58
2019-03-15T17:21:08.094Z,2.31
2019-03-15T17:24:32.739Z,2.55
2019-03-15T17:27:05.235Z,2.49
2019-03-15T17:29:37.805Z,2.44
2019-03-15T17:32:08.753Z,2.45
2019-03-15T17:34:39.502Z,2.43
2019-03-15T17:37:10.366Z,2.43
2019-03-15T17:39:43.917Z,2.44
2019-03-15T17:42:13.057Z,2.61
2019-03-15T17:44:45.098Z,2.44
2019-03-15T17:47:21.547Z,2.34
2019-03-15T17:49:59.133Z,2.41
2019-03-15T17:52:29.554Z,2.42
2019-03-15T17:54:59.960Z,2.47
2019-03-15T17:57:32.500Z,2.52
2019-03-15T18:00:23.211Z,2.58
2019-03-15T18:02:53.766Z,2.66
2019-03-15T18:05:24.312Z,2.64
2019-03-15T18:07:55.432Z,2.48
2019-03-15T18:10:26.098Z,2.48
2019-03-15T18:13:00.246Z,2.45
2019-03-15T18:15:37.560Z,2.44
2019-03-15T18:18:08.336Z,2.36
2019-03-15T18:20:39.122Z,2.38
2019-03-15T18:23:21.018Z,2.50
2019-03-15T18:26:13.095Z,2.49
2019-03-15T18:28:49.362Z,2.51
2019-03-15T18:31:24.754Z,2.43
2019-03-15T18:33:56.209Z,2.43
2019-03-15T18:36:28.782Z,2.55
2019-03-15T18:45:49.427Z,2.40
2019-03-15T18:48:22.318Z,2.40
2019-03-15T18:50:53.719Z,2.25
2019-03-15T18:53:27.654Z,2.40
2019-03-15T18:56:00.344Z,2.30
2019-03-15T18:58:31.846Z,2.33
2019-03-15T19:01:08.659Z,2.32
2019-03-15T19:03:42.756Z,2.31
2019-03-15T19:06:14.111Z,2.42
2019-03-15T19:08:47.766Z,2.25
2019-03-15T19:11:22.355Z,2.39
2019-03-15T19:13:55.640Z,2.24
2019-03-15T19:16:26.479Z,2.18
2019-03-15T19:19:01.609Z,2.15
2019-03-15T19:22:02.345Z,2.22
2019-03-15T19:24:43.331Z,2.24
2019-03-15T19:27:51.939Z,2.13
2019-03-15T19:30:30.037Z,2.13
2019-03-15T19:33:01.261Z,2.12
2019-03-15T19:35:37.370Z,2.07
2019-03-15T19:38:22.978Z,2.10
2019-03-15T19:40:55.931Z,2.14
2019-03-15T19:43:29.792Z,2.09
2019-03-15T19:46:04.094Z,2.14
2019-03-15T19:48:44.550Z,2.14
2019-03-15T19:51:14.736Z,2.05
2019-03-15T19:53:47.789Z,2.01
2019-03-15T19:56:19.517Z,2.09
2019-03-15T19:58:50.748Z,2.09
2019-03-15T20:01:28.819Z,2.23
2019-03-15T20:04:09.043Z,2.21
2019-03-15T20:06:49.947Z,2.08
2019-03-15T20:09:21.832Z,2.14
2019-03-15T20:11:52.933Z,2.23
2019-03-15T20:14:23.711Z,2.29
2019-03-15T20:16:56.114Z,2.21
2019-03-15T20:19:26.719Z,2.15
2019-03-15T20:21:57.384Z,2.14
2019-03-15T20:24:29.266Z,2.10
2019-03-15T20:27:01.470Z,2.11
2019-03-15T20:29:34.434Z,2.14
2019-03-15T20:32:06.632Z,2.08
2019-03-15T20:34:38.170Z,1.98
2019-03-15T20:37:11.702Z,1.92
2019-03-15T20:39:42.595Z,2.05
2019-03-15T20:42:27.812Z,1.92
2019-03-15T20:45:02.020Z,1.92
2019-03-15T20:47:36.115Z,2.14
2019-03-15T20:50:06.814Z,1.97
2019-03-15T20:52:37.998Z,1.89
2019-03-15T20:55:10.282Z,1.92
2019-03-15T20:57:40.952Z,1.89
2019-03-15T21:00:13.453Z,1.95
2019-03-15T21:02:44.064Z,1.86
2019-03-15T21:05:14.921Z,1.87
2019-03-15T21:07:45.933Z,1.80
2019-03-15T21:10:22.487Z,1.92
2019-03-15T21:12:55.972Z,1.84
2019-03-15T21:15:26.371Z,1.81
2019-03-15T21:17:59.248Z,1.87
2019-03-15T21:20:32.753Z,1.79
2019-03-15T21:23:03.593Z,1.76
2019-03-15T21:25:38.377Z,1.70
2019-03-15T21:28:11.606Z,1.67
2019-03-15T21:30:48.243Z,1.64
2019-03-15T21:34:26.665Z,1.59
2019-03-15T21:37:04.184Z,1.56
2019-03-15T21:39:35.157Z,1.53
2019-03-15T21:42:06.553Z,1.52
2019-03-15T21:44:40.673Z,1.52
2019-03-15T21:47:12.300Z,1.53
2019-03-15T21:49:42.883Z,1.52
2019-03-15T21:52:13.344Z,1.55
2019-03-15T21:54:46.566Z,1.60
2019-03-15T21:57:27.541Z,1.58
2019-03-15T22:00:03.961Z,1.58
2019-03-15T22:02:34.827Z,1.55
2019-03-15T22:05:05.799Z,1.51
2019-03-15T22:07:37.678Z,1.47
2019-03-15T22:10:14.096Z,1.43
2019-03-15T22:12:44.588Z,1.42
2019-03-15T22:15:15.609Z,1.42
2019-03-15T22:17:46.310Z,1.40
2019-03-15T22:20:18.114Z,1.41
2019-03-15T22:22:48.651Z,1.50
2019-03-15T22:25:19.136Z,1.42
2019-03-15T22:27:50.354Z,1.37
2019-03-15T22:30:21.186Z,1.45
2019-03-15T22:32:52.757Z,1.39
2019-03-15T22:35:23.414Z,1.38
2019-03-15T22:37:54.539Z,1.34
2019-03-15T22:41:03.271Z,1.22
2019-03-15T22:43:34.283Z,1.22
2019-03-15T22:46:05.482Z,1.33
2019-03-15T22:48:45.962Z,1.29
2019-03-15T22:51:13.704Z,1.30
2019-03-15T22:54:08.220Z,1.30
2019-03-15T22:56:50.579Z,1.43
2019-03-15T22:59:21.250Z,1.45
2019-03-15T23:01:51.670Z,1.46
2019-03-15T23:04:22.098Z,1.45
2019-03-15T23:06:52.642Z,1.37
2019-03-15T23:09:23.008Z,1.29
2019-03-15T23:11:55.987Z,1.40
2019-03-15T23:14:26.662Z,1.35
2019-03-15T23:16:57.058Z,1.22
2019-03-15T23:19:34.651Z,1.19
2019-03-15T23:22:06.289Z,1.22
2019-03-15T23:24:37.250Z,1.25
2019-03-15T23:27:07.671Z,1.26
2019-03-15T23:29:38.082Z,1.17
2019-03-15T23:32:08.480Z,1.15
2019-03-15T23:34:39.691Z,1.15
2019-03-15T23:37:10.134Z,1.11
2019-03-15T23:39:40.558Z,1.14
2019-03-15T23:42:12.684Z,1.14
2019-03-15T23:44:43.377Z,1.11
2019-03-15T23:47:16.889Z,1.10
2019-03-15T23:49:47.331Z,1.05
2019-03-15T23:52:18.084Z,1.25
2019-03-15T23:54:48.455Z,1.25
2019-03-15T23:57:18.884Z,1.26
2019-03-15T23:59:49.334Z,1.14
